Time,TemperatureF,DewpointF,PressureIn,WindDirection,WindDirectionDegrees,WindSpeedMPH,WindSpeedGustMPH,Humidity,HourlyPrecipIn,Conditions,Clouds,dailyrainin,SoftwareType,DateUTC
2013-01-12 00:04:00,45.8,43.9,29.61,NNW,340,1.0,6.0,93,0.00,,,0.05,Wunderground v.1.15,2013-01-12 06:04:00,
2013-01-12 00:10:00,45.7,43.8,29.61,NNW,339,1.0,2.0,93,0.00,,,0.05,Wunderground v.1.15,2013-01-12 06:10:00,
2013-01-12 00:15:00,45.6,43.7,29.61,NNW,333,2.0,2.0,93,0.00,,,0.05,Wunderground v.1.15,2013-01-12 06:15:00,
2013-01-12 00:21:00,45.6,43.7,29.61,NNW,343,0.0,2.0,93,0.00,,,0.05,Wunderground v.1.15,2013-01-12 06:21:00,
2013-01-12 00:27:00,45.4,43.5,29.61,NNW,338,2.0,3.0,93,0.00,,,0.05,Wunderground v.1.15,2013-01-12 06:27:00,
2013-01-12 00:34:00,45.3,43.4,29.61,NNW,332,0.0,4.0,93,0.00,,,0.05,Wunderground v.1.15,2013-01-12 06:34:00,
2013-01-12 00:39:00,45.1,43.2,29.61,NNW,333,1.0,1.0,93,0.00,,,0.05,Wunderground v.1.15,2013-01-12 06:39:00,
2013-01-12 00:45:00,45.0,43.1,29.61,North,351,0.0,4.0,93,0.00,,,0.05,Wunderground v.1.15,2013-01-12 06:45:00,
2013-01-12 00:50:00,45.0,43.1,29.61,NNW,342,1.0,2.0,93,0.00,,,0.05,Wunderground v.1.15,2013-01-12 06:50:00,
2013-01-12 00:56:00,44.8,42.9,29.61,WSW,255,0.0,2.0,93,0.00,,,0.05,Wunderground v.1.15,2013-01-12 06:56:00,
2013-01-12 01:02:00,44.7,42.8,29.61,NNW,330,0.0,1.0,93,0.00,,,0.00,Wunderground v.1.15,2013-01-12 07:02:00,
2013-01-12 01:08:00,44.6,43.0,29.61,NNW,348,1.0,1.0,94,0.00,,,0.00,Wunderground v.1.15,2013-01-12 07:08:00,
2013-01-12 01:14:00,44.7,43.1,29.61,WNW,297,1.0,1.0,94,0.00,,,0.00,Wunderground v.1.15,2013-01-12 07:14:00,
2013-01-12 01:20:00,44.7,43.1,29.62,NNW,332,2.0,2.0,94,0.00,,,0.00,Wunderground v.1.15,2013-01-12 07:20:00,
2013-01-12 01:25:00,44.8,43.2,29.63,North,349,0.0,3.0,94,0.00,,,0.00,Wunderground v.1.15,2013-01-12 07:25:00,
2013-01-12 01:31:00,44.7,42.8,29.63,NNW,332,1.0,3.0,93,0.00,,,0.00,Wunderground v.1.15,2013-01-12 07:31:00,
2013-01-12 01:37:00,44.8,42.9,29.63,NNW,343,1.0,3.0,93,0.00,,,0.00,Wunderground v.1.15,2013-01-12 07:37:00,
2013-01-12 01:44:00,44.9,43.0,29.63,NNW,342,2.0,3.0,93,0.00,,,0.00,Wunderground v.1.15,2013-01-12 07:44:00,
2013-01-12 01:50:00,44.9,43.0,29.63,NNW,343,0.0,2.0,93,0.00,,,0.00,Wunderground v.1.15,2013-01-12 07:50:00,
2013-01-12 01:56:00,44.8,42.9,29.63,NNW,347,0.0,5.0,93,0.00,,,0.00,Wunderground v.1.15,2013-01-12 07:56:00,
2013-01-12 02:01:00,44.8,42.9,29.63,NNW,330,1.0,1.0,93,0.00,,,0.00,Wunderground v.1.15,2013-01-12 08:01:00,
2013-01-12 02:06:00,44.7,42.8,29.63,NW,321,1.0,3.0,93,0.00,,,0.00,Wunderground v.1.15,2013-01-12 08:06:00,
2013-01-12 02:11:00,44.7,42.5,29.63,North,349,1.0,3.0,92,0.00,,,0.00,Wunderground v.1.15,2013-01-12 08:11:00,
2013-01-12 02:16:00,44.6,42.4,29.63,NNW,346,1.0,4.0,92,0.00,,,0.00,Wunderground v.1.15,2013-01-12 08:16:00,
2013-01-12 02:21:00,44.7,42.8,29.63,NNW,330,4.0,4.0,93,0.00,,,0.00,Wunderground v.1.15,2013-01-12 08:21:00,
2013-01-12 02:26:00,44.9,43.0,29.63,NNW,333,2.0,5.0,93,0.00,,,0.00,Wunderground v.1.15,2013-01-12 08:26:00,
2013-01-12 02:31:00,45.0,43.1,29.63,NNW,331,0.0,3.0,93,0.00,,,0.00,Wunderground v.1.15,2013-01-12 08:31:00,
2013-01-12 02:36:00,45.1,42.9,29.63,NNW,330,0.0,4.0,92,0.00,,,0.00,Wunderground v.1.15,2013-01-12 08:36:00,
2013-01-12 02:41:00,45.2,43.0,29.63,NW,326,3.0,4.0,92,0.00,,,0.00,Wunderground v.1.15,2013-01-12 08:41:00,
2013-01-12 02:46:00,45.2,43.0,29.63,North,355,1.0,5.0,92,0.00,,,0.00,Wunderground v.1.15,2013-01-12 08:46:00,
2013-01-12 02:51:00,45.4,43.2,29.63,North,6,3.0,5.0,92,0.00,,,0.00,Wunderground v.1.15,2013-01-12 08:51:00,
2013-01-12 02:56:00,45.4,42.9,29.63,NNW,340,1.0,5.0,91,0.00,,,0.00,Wunderground v.1.15,2013-01-12 08:56:00,
2013-01-12 03:01:00,45.5,43.0,29.63,NNW,345,2.0,4.0,91,0.00,,,0.00,Wunderground v.1.15,2013-01-12 09:01:00,
2013-01-12 03:06:00,45.5,43.0,29.63,NNW,334,0.0,5.0,91,0.00,,,0.00,Wunderground v.1.15,2013-01-12 09:06:00,
2013-01-12 03:11:00,45.5,43.0,29.63,North,355,1.0,3.0,91,0.00,,,0.00,Wunderground v.1.15,2013-01-12 09:11:00,
2013-01-12 03:16:00,45.6,43.1,29.63,NNW,330,2.0,6.0,91,0.00,,,0.00,Wunderground v.1.15,2013-01-12 09:16:00,
2013-01-12 03:21:00,45.7,42.9,29.63,NW,306,0.0,2.0,90,0.00,,,0.00,Wunderground v.1.15,2013-01-12 09:21:00,
2013-01-12 03:27:00,45.7,43.2,29.63,North,357,1.0,5.0,91,0.00,,,0.00,Wunderground v.1.15,2013-01-12 09:27:00,
2013-01-12 03:32:00,45.8,43.3,29.63,ESE,116,1.0,4.0,91,0.00,,,0.00,Wunderground v.1.15,2013-01-12 09:32:00,
2013-01-12 03:37:00,45.7,42.9,29.63,South,170,1.0,4.0,90,0.00,,,0.00,Wunderground v.1.15,2013-01-12 09:37:00,
2013-01-12 03:42:00,45.7,43.2,29.63,NNW,347,1.0,4.0,91,0.00,,,0.00,Wunderground v.1.15,2013-01-12 09:42:00,
2013-01-12 03:47:00,45.8,43.3,29.63,South,178,0.0,5.0,91,0.00,,,0.00,Wunderground v.1.15,2013-01-12 09:47:00,
2013-01-12 03:52:00,46.0,43.5,29.63,NW,320,2.0,5.0,91,0.00,,,0.00,Wunderground v.1.15,2013-01-12 09:52:00,
2013-01-12 03:57:00,46.2,43.4,29.64,North,349,2.0,5.0,90,0.00,,,0.00,Wunderground v.1.15,2013-01-12 09:57:00,
2013-01-12 04:02:00,46.2,43.4,29.63,NNW,334,5.0,5.0,90,0.00,,,0.00,Wunderground v.1.15,2013-01-12 10:02:00,
2013-01-12 04:07:00,46.2,43.4,29.63,WNW,303,0.0,5.0,90,0.00,,,0.00,Wunderground v.1.15,2013-01-12 10:07:00,
2013-01-12 04:12:00,46.2,43.4,29.64,NNW,339,1.0,5.0,90,0.00,,,0.00,Wunderground v.1.15,2013-01-12 10:12:00,
2013-01-12 04:17:00,46.3,43.5,29.64,NNW,339,3.0,6.0,90,0.00,,,0.00,Wunderground v.1.15,2013-01-12 10:17:00,
2013-01-12 04:22:00,46.2,43.4,29.63,NNE,12,0.0,4.0,90,0.00,,,0.00,Wunderground v.1.15,2013-01-12 10:22:00,
2013-01-12 04:27:00,46.1,43.3,29.63,WNW,297,1.0,7.0,90,0.00,,,0.00,Wunderground v.1.15,2013-01-12 10:27:00,
2013-01-12 04:32:00,46.1,43.3,29.63,NNW,332,2.0,3.0,90,0.00,,,0.00,Wunderground v.1.15,2013-01-12 10:32:00,
2013-01-12 04:37:00,46.0,43.2,29.63,North,351,2.0,6.0,90,0.00,,,0.00,Wunderground v.1.15,2013-01-12 10:37:00,
2013-01-12 04:42:00,46.2,43.4,29.64,NW,321,3.0,6.0,90,0.00,,,0.00,Wunderground v.1.15,2013-01-12 10:42:00,
2013-01-12 04:47:00,46.3,43.2,29.64,NNW,334,5.0,6.0,89,0.00,,,0.00,Wunderground v.1.15,2013-01-12 10:47:00,
2013-01-12 04:52:00,46.3,43.2,29.64,NW,322,2.0,7.0,89,0.00,,,0.00,Wunderground v.1.15,2013-01-12 10:52:00,
2013-01-12 04:58:00,46.4,43.3,29.64,NNW,336,7.0,10.0,89,0.00,,,0.00,Wunderground v.1.15,2013-01-12 10:58:00,
2013-01-12 05:03:00,46.5,43.4,29.64,NNW,335,5.0,13.0,89,0.00,,,0.00,Wunderground v.1.15,2013-01-12 11:03:00,
2013-01-12 05:08:00,46.5,43.1,29.65,NNW,336,3.0,13.0,88,0.00,,,0.00,Wunderground v.1.15,2013-01-12 11:08:00,
2013-01-12 05:13:00,46.4,43.0,29.65,NNE,22,7.0,10.0,88,0.00,,,0.00,Wunderground v.1.15,2013-01-12 11:13:00,
2013-01-12 05:18:00,46.2,42.8,29.66,NNW,340,1.0,10.0,88,0.00,,,0.00,Wunderground v.1.15,2013-01-12 11:18:00,
2013-01-12 05:23:00,45.9,42.5,29.66,North,357,2.0,9.0,88,0.00,,,0.00,Wunderground v.1.15,2013-01-12 11:23:00,
2013-01-12 05:28:00,45.7,42.6,29.66,NW,326,4.0,9.0,89,0.00,,,0.00,Wunderground v.1.15,2013-01-12 11:28:00,
2013-01-12 05:33:00,45.5,42.4,29.67,NNW,345,5.0,7.0,89,0.00,,,0.00,Wunderground v.1.15,2013-01-12 11:33:00,
2013-01-12 05:38:00,45.3,42.2,29.67,North,357,4.0,7.0,89,0.00,,,0.00,Wunderground v.1.15,2013-01-12 11:38:00,
2013-01-12 05:43:00,45.5,42.4,29.67,NNW,328,6.0,9.0,89,0.00,,,0.00,Wunderground v.1.15,2013-01-12 11:43:00,
2013-01-12 05:48:00,46.0,42.6,29.69,NNW,334,5.0,15.0,88,0.00,,,0.00,Wunderground v.1.15,2013-01-12 11:48:00,
2013-01-12 05:53:00,46.3,42.0,29.69,NNW,330,3.0,14.0,85,0.00,,,0.00,Wunderground v.1.15,2013-01-12 11:53:00,
2013-01-12 05:58:00,46.1,41.2,29.70,NNW,336,6.0,15.0,83,0.00,,,0.00,Wunderground v.1.15,2013-01-12 11:58:00,
2013-01-12 06:03:00,45.7,40.5,29.70,NNW,330,4.0,10.0,82,0.00,,,0.00,Wunderground v.1.15,2013-01-12 12:03:00,
2013-01-12 06:08:00,45.2,40.0,29.70,NNW,333,4.0,16.0,82,0.00,,,0.00,Wunderground v.1.15,2013-01-12 12:08:00,
2013-01-12 06:13:00,44.7,38.9,29.71,NW,309,10.0,12.0,80,0.00,,,0.00,Wunderground v.1.15,2013-01-12 12:13:00,
2013-01-12 06:18:00,44.3,38.2,29.71,NW,312,10.0,20.0,79,0.00,,,0.00,Wunderground v.1.15,2013-01-12 12:18:00,
2013-01-12 06:23:00,43.8,37.7,29.71,NNW,333,9.0,16.0,79,0.00,,,0.00,Wunderground v.1.15,2013-01-12 12:23:00,
2013-01-12 06:28:00,43.0,36.9,29.71,WNW,303,5.0,16.0,79,0.00,,,0.00,Wunderground v.1.15,2013-01-12 12:28:00,
2013-01-12 06:33:00,42.4,36.7,29.72,NNW,341,4.0,10.0,80,0.00,,,0.00,Wunderground v.1.15,2013-01-12 12:33:00,
2013-01-12 06:38:00,41.9,36.2,29.73,NNW,329,4.0,10.0,80,0.00,,,0.00,Wunderground v.1.15,2013-01-12 12:38:00,
2013-01-12 06:43:00,41.2,35.8,29.73,NNW,334,7.0,15.0,81,0.00,,,0.00,Wunderground v.1.15,2013-01-12 12:43:00,
2013-01-12 06:48:00,40.6,35.2,29.73,NNW,337,6.0,15.0,81,0.00,,,0.00,Wunderground v.1.15,2013-01-12 12:48:00,
2013-01-12 06:53:00,40.2,35.1,29.73,SE,145,2.0,10.0,82,0.00,,,0.00,Wunderground v.1.15,2013-01-12 12:53:00,
2013-01-12 06:58:00,39.7,34.7,29.74,SSE,156,1.0,11.0,82,0.00,,,0.00,Wunderground v.1.15,2013-01-12 12:58:00,
2013-01-12 07:03:00,39.3,34.6,29.75,NW,325,2.0,10.0,83,0.00,,,0.00,Wunderground v.1.15,2013-01-12 13:03:00,
2013-01-12 07:08:00,39.0,34.6,29.75,NNW,334,5.0,10.0,84,0.00,,,0.00,Wunderground v.1.15,2013-01-12 13:08:00,
2013-01-12 07:13:00,38.7,34.3,29.76,NNW,337,5.0,11.0,84,0.00,,,0.00,Wunderground v.1.15,2013-01-12 13:13:00,
2013-01-12 07:19:00,38.3,33.6,29.76,NNW,338,11.0,15.0,83,0.00,,,0.00,Wunderground v.1.15,2013-01-12 13:19:00,
2013-01-12 07:24:00,37.9,33.2,29.77,ESE,112,4.0,12.0,83,0.00,,,0.00,Wunderground v.1.15,2013-01-12 13:24:00,
2013-01-12 07:29:00,37.5,32.8,29.77,NNW,334,10.0,14.0,83,0.00,,,0.00,Wunderground v.1.15,2013-01-12 13:29:00,
2013-01-12 07:34:00,37.2,32.8,29.78,NE,53,2.0,9.0,84,0.00,,,0.00,Wunderground v.1.15,2013-01-12 13:34:00,
2013-01-12 07:39:00,36.9,32.8,29.78,SE,130,6.0,9.0,85,0.00,,,0.00,Wunderground v.1.15,2013-01-12 13:39:00,
2013-01-12 07:44:00,36.7,32.6,29.79,NNW,332,3.0,9.0,85,0.00,,,0.00,Wunderground v.1.15,2013-01-12 13:44:00,
2013-01-12 07:49:00,36.3,32.2,29.79,SSE,161,4.0,13.0,85,0.00,,,0.00,Wunderground v.1.15,2013-01-12 13:49:00,
2013-01-12 07:54:00,35.8,31.7,29.80,ESE,107,4.0,11.0,85,0.00,,,0.00,Wunderground v.1.15,2013-01-12 13:54:00,
2013-01-12 07:59:00,35.5,31.4,29.80,NNW,340,1.0,4.0,85,0.00,,,0.00,Wunderground v.1.15,2013-01-12 13:59:00,
2013-01-12 08:04:00,35.3,31.2,29.81,ESE,120,6.0,10.0,85,0.00,,,0.00,Wunderground v.1.15,2013-01-12 14:04:00,
2013-01-12 08:09:00,35.2,30.9,29.81,West,261,1.0,4.0,84,0.00,,,0.00,Wunderground v.1.15,2013-01-12 14:09:00,
2013-01-12 08:14:00,35.1,30.2,29.81,NNW,331,7.0,17.0,82,0.00,,,0.00,Wunderground v.1.15,2013-01-12 14:14:00,
2013-01-12 08:19:00,34.9,30.0,29.82,NW,326,1.0,5.0,82,0.00,,,0.00,Wunderground v.1.15,2013-01-12 14:19:00,
2013-01-12 08:24:00,34.7,29.8,29.82,WSW,250,2.0,13.0,82,0.00,,,0.00,Wunderground v.1.15,2013-01-12 14:24:00,
2013-01-12 08:29:00,34.3,29.4,29.82,SE,134,2.0,4.0,82,0.00,,,0.00,Wunderground v.1.15,2013-01-12 14:29:00,
2013-01-12 08:34:00,34.1,29.2,29.83,NW,324,6.0,7.0,82,0.00,,,0.00,Wunderground v.1.15,2013-01-12 14:34:00,
2013-01-12 08:39:00,33.9,29.0,29.83,ESE,104,3.0,4.0,82,0.00,,,0.00,Wunderground v.1.15,2013-01-12 14:39:00,
2013-01-12 08:44:00,33.8,29.2,29.84,NNW,334,3.0,9.0,83,0.00,,,0.00,Wunderground v.1.15,2013-01-12 14:44:00,
2013-01-12 08:49:00,33.8,29.5,29.85,NNW,345,1.0,3.0,84,0.00,,,0.00,Wunderground v.1.15,2013-01-12 14:49:00,
2013-01-12 08:54:00,33.6,29.3,29.85,SE,130,4.0,8.0,84,0.00,,,0.00,Wunderground v.1.15,2013-01-12 14:54:00,
2013-01-12 08:59:00,33.4,28.8,29.85,NNW,344,4.0,5.0,83,0.00,,,0.00,Wunderground v.1.15,2013-01-12 14:59:00,
2013-01-12 09:05:00,33.3,28.7,29.85,NNW,339,1.0,6.0,83,0.00,,,0.00,Wunderground v.1.15,2013-01-12 15:05:00,
2013-01-12 09:10:00,33.4,28.8,29.86,NNW,342,2.0,6.0,83,0.00,,,0.00,Wunderground v.1.15,2013-01-12 15:10:00,
2013-01-12 09:15:00,33.5,28.6,29.86,NNW,338,2.0,13.0,82,0.00,,,0.00,Wunderground v.1.15,2013-01-12 15:15:00,
2013-01-12 09:20:00,33.5,28.6,29.85,NNW,341,12.0,12.0,82,0.00,,,0.00,Wunderground v.1.15,2013-01-12 15:20:00,
2013-01-12 09:25:00,33.5,28.3,29.85,NNW,339,5.0,12.0,81,0.00,,,0.00,Wunderground v.1.15,2013-01-12 15:25:00,
2013-01-12 09:30:00,33.6,27.8,29.86,NW,307,7.0,10.0,79,0.00,,,0.00,Wunderground v.1.15,2013-01-12 15:30:00,
2013-01-12 09:35:00,33.4,27.6,29.86,NW,326,9.0,12.0,79,0.00,,,0.00,Wunderground v.1.15,2013-01-12 15:35:00,
2013-01-12 09:40:00,33.1,27.6,29.87,NNW,341,5.0,11.0,80,0.00,,,0.00,Wunderground v.1.15,2013-01-12 15:40:00,
2013-01-12 09:45:00,32.8,27.3,29.87,SE,145,7.0,11.0,80,0.00,,,0.00,Wunderground v.1.15,2013-01-12 15:45:00,
2013-01-12 09:50:00,32.6,27.4,29.86,ESE,109,3.0,7.0,81,0.00,,,0.00,Wunderground v.1.15,2013-01-12 15:50:00,
2013-01-12 09:55:00,32.5,26.7,29.86,NW,320,1.0,12.0,79,0.00,,,0.00,Wunderground v.1.15,2013-01-12 15:55:00,
2013-01-12 10:00:00,32.2,26.4,29.88,NNE,20,2.0,9.0,79,0.00,,,0.00,Wunderground v.1.15,2013-01-12 16:00:00,
2013-01-12 10:05:00,31.9,26.1,29.89,NNW,337,5.0,12.0,79,0.00,,,0.00,Wunderground v.1.15,2013-01-12 16:05:00,
2013-01-12 10:10:00,31.7,26.2,29.89,NE,45,3.0,5.0,80,0.00,,,0.00,Wunderground v.1.15,2013-01-12 16:10:00,
2013-01-12 10:15:00,31.8,26.0,29.89,NNW,348,3.0,7.0,79,0.00,,,0.00,Wunderground v.1.15,2013-01-12 16:15:00,
2013-01-12 10:20:00,31.6,25.2,29.89,ESE,112,2.0,7.0,77,0.00,,,0.00,Wunderground v.1.15,2013-01-12 16:20:00,
2013-01-12 10:25:00,31.4,25.0,29.89,North,8,9.0,12.0,77,0.00,,,0.00,Wunderground v.1.15,2013-01-12 16:25:00,
2013-01-12 10:30:00,31.4,25.0,29.90,NNW,345,7.0,7.0,77,0.00,,,0.00,Wunderground v.1.15,2013-01-12 16:30:00,
2013-01-12 10:35:00,31.2,23.9,29.90,NNE,22,3.0,12.0,74,0.00,,,0.00,Wunderground v.1.15,2013-01-12 16:35:00,
2013-01-12 10:40:00,31.3,24.0,29.90,East,100,4.0,5.0,74,0.00,,,0.00,Wunderground v.1.15,2013-01-12 16:40:00,
2013-01-12 10:45:00,31.4,23.7,29.90,NNE,30,3.0,12.0,73,0.00,,,0.00,Wunderground v.1.15,2013-01-12 16:45:00,
2013-01-12 10:50:00,31.5,23.8,29.90,WNW,287,2.0,5.0,73,0.00,,,0.00,Wunderground v.1.15,2013-01-12 16:50:00,
2013-01-12 10:55:00,31.6,24.3,29.90,SE,141,3.0,8.0,74,0.00,,,0.00,Wunderground v.1.15,2013-01-12 16:55:00,
2013-01-12 11:00:00,31.9,23.9,29.89,East,79,2.0,12.0,72,0.00,,,0.00,Wunderground v.1.15,2013-01-12 17:00:00,
2013-01-12 11:05:00,31.8,23.5,29.89,NNW,333,5.0,12.0,71,0.00,,,0.00,Wunderground v.1.15,2013-01-12 17:05:00,
2013-01-12 11:10:00,31.7,23.4,29.90,NNW,330,4.0,12.0,71,0.00,,,0.00,Wunderground v.1.15,2013-01-12 17:10:00,
2013-01-12 11:15:00,31.7,23.4,29.91,SE,139,4.0,12.0,71,0.00,,,0.00,Wunderground v.1.15,2013-01-12 17:15:00,
2013-01-12 11:20:00,31.6,22.9,29.91,NNW,338,3.0,5.0,70,0.00,,,0.00,Wunderground v.1.15,2013-01-12 17:20:00,
2013-01-12 11:25:00,31.6,22.9,29.90,SSE,166,5.0,16.0,70,0.00,,,0.00,Wunderground v.1.15,2013-01-12 17:25:00,
2013-01-12 11:30:00,31.3,22.3,29.90,NW,326,3.0,6.0,69,0.00,,,0.00,Wunderground v.1.15,2013-01-12 17:30:00,
2013-01-12 11:36:00,31.2,23.2,29.90,SW,235,2.0,6.0,72,0.00,,,0.00,Wunderground v.1.15,2013-01-12 17:36:00,
2013-01-12 11:41:00,31.4,23.1,29.91,NNW,341,3.0,5.0,71,0.00,,,0.00,Wunderground v.1.15,2013-01-12 17:41:00,
2013-01-12 11:46:00,31.3,23.3,29.90,ESE,103,2.0,11.0,72,0.00,,,0.00,Wunderground v.1.15,2013-01-12 17:46:00,
2013-01-12 11:51:00,31.1,22.8,29.89,ESE,103,4.0,9.0,71,0.00,,,0.00,Wunderground v.1.15,2013-01-12 17:51:00,
2013-01-12 11:56:00,30.9,22.6,29.89,North,357,5.0,12.0,71,0.00,,,0.00,Wunderground v.1.15,2013-01-12 17:56:00,
2013-01-12 12:01:00,30.6,22.3,29.89,NW,323,2.0,4.0,71,0.00,,,0.00,Wunderground v.1.15,2013-01-12 18:01:00,
2013-01-12 12:06:00,30.7,22.7,29.89,North,349,7.0,15.0,72,0.00,,,0.00,Wunderground v.1.15,2013-01-12 18:06:00,
2013-01-12 12:11:00,30.7,22.7,29.89,North,360,2.0,6.0,72,0.00,,,0.00,Wunderground v.1.15,2013-01-12 18:11:00,
2013-01-12 12:16:00,30.6,22.6,29.90,NNW,332,10.0,10.0,72,0.00,,,0.00,Wunderground v.1.15,2013-01-12 18:16:00,
2013-01-12 12:21:00,30.5,22.5,29.90,NW,317,3.0,10.0,72,0.00,,,0.00,Wunderground v.1.15,2013-01-12 18:21:00,
2013-01-12 12:26:00,30.3,22.0,29.90,North,349,5.0,11.0,71,0.00,,,0.00,Wunderground v.1.15,2013-01-12 18:26:00,
2013-01-12 12:31:00,30.4,22.4,29.90,WSW,241,1.0,5.0,72,0.00,,,0.00,Wunderground v.1.15,2013-01-12 18:31:00,
2013-01-12 12:36:00,30.5,22.5,29.90,SSE,149,3.0,6.0,72,0.00,,,0.00,Wunderground v.1.15,2013-01-12 18:36:00,
2013-01-12 12:41:00,30.7,22.7,29.90,NNW,328,1.0,6.0,72,0.00,,,0.00,Wunderground v.1.15,2013-01-12 18:41:00,
2013-01-12 12:46:00,30.7,22.7,29.90,SSE,156,1.0,11.0,72,0.00,,,0.00,Wunderground v.1.15,2013-01-12 18:46:00,
2013-01-12 12:51:00,30.8,22.8,29.92,NNW,333,9.0,13.0,72,0.00,,,0.00,Wunderground v.1.15,2013-01-12 18:51:00,
2013-01-12 12:56:00,30.8,23.2,29.91,NNW,331,7.0,13.0,73,0.00,,,0.00,Wunderground v.1.15,2013-01-12 18:56:00,
2013-01-12 13:01:00,30.7,22.4,29.91,NNW,342,5.0,12.0,71,0.00,,,0.00,Wunderground v.1.15,2013-01-12 19:01:00,
2013-01-12 13:06:00,30.6,22.6,29.92,NNW,328,4.0,12.0,72,0.00,,,0.00,Wunderground v.1.15,2013-01-12 19:06:00,
2013-01-12 13:11:00,30.7,22.7,29.92,North,1,1.0,6.0,72,0.00,,,0.00,Wunderground v.1.15,2013-01-12 19:11:00,
2013-01-12 13:16:00,30.7,22.7,29.93,North,11,9.0,9.0,72,0.00,,,0.00,Wunderground v.1.15,2013-01-12 19:16:00,
2013-01-12 13:21:00,30.5,22.5,29.93,SE,137,4.0,6.0,72,0.00,,,0.00,Wunderground v.1.15,2013-01-12 19:21:00,
2013-01-12 13:26:00,30.6,23.0,29.93,NNW,340,3.0,12.0,73,0.00,,,0.00,Wunderground v.1.15,2013-01-12 19:26:00,
2013-01-12 13:31:00,30.8,22.8,29.92,NNW,330,4.0,9.0,72,0.00,,,0.00,Wunderground v.1.15,2013-01-12 19:31:00,
2013-01-12 13:36:00,30.8,22.8,29.94,NNW,344,5.0,9.0,72,0.00,,,0.00,Wunderground v.1.15,2013-01-12 19:36:00,
2013-01-12 13:41:00,30.7,22.7,29.94,NNW,345,2.0,9.0,72,0.00,,,0.00,Wunderground v.1.15,2013-01-12 19:41:00,
2013-01-12 13:46:00,30.7,22.7,29.94,NNW,339,3.0,11.0,72,0.00,,,0.00,Wunderground v.1.15,2013-01-12 19:46:00,
2013-01-12 13:51:00,30.7,22.4,29.94,NW,319,5.0,11.0,71,0.00,,,0.00,Wunderground v.1.15,2013-01-12 19:51:00,
2013-01-12 13:56:00,30.6,22.3,29.93,SSE,149,2.0,11.0,71,0.00,,,0.00,Wunderground v.1.15,2013-01-12 19:56:00,
2013-01-12 14:01:00,30.6,22.6,29.94,NNW,344,5.0,8.0,72,0.00,,,0.00,Wunderground v.1.15,2013-01-12 20:01:00,
2013-01-12 14:06:00,30.5,22.5,29.93,North,355,2.0,11.0,72,0.00,,,0.00,Wunderground v.1.15,2013-01-12 20:06:00,
2013-01-12 14:11:00,30.5,22.5,29.93,WNW,302,4.0,5.0,72,0.00,,,0.00,Wunderground v.1.15,2013-01-12 20:11:00,
2013-01-12 14:16:00,30.5,22.5,29.94,NNW,344,2.0,7.0,72,0.00,,,0.00,Wunderground v.1.15,2013-01-12 20:16:00,
2013-01-12 14:21:00,30.6,23.0,29.94,NW,326,4.0,6.0,73,0.00,,,0.00,Wunderground v.1.15,2013-01-12 20:21:00,
2013-01-12 14:27:00,30.6,23.0,29.94,NNE,14,0.0,9.0,73,0.00,,,0.00,Wunderground v.1.15,2013-01-12 20:27:00,
2013-01-12 14:32:00,30.6,22.6,29.95,SE,146,3.0,10.0,72,0.00,,,0.00,Wunderground v.1.15,2013-01-12 20:32:00,
2013-01-12 14:37:00,30.5,22.9,29.95,NNW,345,9.0,10.0,73,0.00,,,0.00,Wunderground v.1.15,2013-01-12 20:37:00,
2013-01-12 14:42:00,30.5,22.9,29.95,South,190,1.0,5.0,73,0.00,,,0.00,Wunderground v.1.15,2013-01-12 20:42:00,
2013-01-12 14:47:00,30.4,22.8,29.95,ESE,107,6.0,6.0,73,0.00,,,0.00,Wunderground v.1.15,2013-01-12 20:47:00,
2013-01-12 14:52:00,30.2,22.6,29.95,NNW,343,4.0,10.0,73,0.00,,,0.00,Wunderground v.1.15,2013-01-12 20:52:00,
2013-01-12 14:57:00,30.1,22.5,29.95,North,354,2.0,10.0,73,0.00,,,0.00,Wunderground v.1.15,2013-01-12 20:57:00,
2013-01-12 15:02:00,30.0,22.4,29.96,East,101,4.0,4.0,73,0.00,,,0.00,Wunderground v.1.15,2013-01-12 21:02:00,
2013-01-12 15:07:00,29.9,22.0,29.95,NNW,335,7.0,7.0,72,0.00,,,0.00,Wunderground v.1.15,2013-01-12 21:07:00,
2013-01-12 15:12:00,29.9,22.3,29.96,NNW,338,5.0,5.0,73,0.00,,,0.00,Wunderground v.1.15,2013-01-12 21:12:00,
2013-01-12 15:17:00,29.8,22.2,29.97,ESE,122,2.0,5.0,73,0.00,,,0.00,Wunderground v.1.15,2013-01-12 21:17:00,
2013-01-12 15:22:00,29.7,21.8,29.97,ESE,119,4.0,7.0,72,0.00,,,0.00,Wunderground v.1.15,2013-01-12 21:22:00,
2013-01-12 15:27:00,29.5,21.6,29.97,NNW,328,3.0,7.0,72,0.00,,,0.00,Wunderground v.1.15,2013-01-12 21:27:00,
2013-01-12 15:32:00,29.3,21.4,29.96,SE,124,2.0,4.0,72,0.00,,,0.00,Wunderground v.1.15,2013-01-12 21:32:00,
2013-01-12 15:37:00,29.2,21.3,29.96,NNW,343,2.0,5.0,72,0.00,,,0.00,Wunderground v.1.15,2013-01-12 21:37:00,
2013-01-12 15:42:00,29.1,21.8,29.96,East,100,2.0,3.0,74,0.00,,,0.00,Wunderground v.1.15,2013-01-12 21:42:00,
2013-01-12 15:47:00,29.0,21.7,29.96,SE,124,2.0,7.0,74,0.00,,,0.00,Wunderground v.1.15,2013-01-12 21:47:00,
2013-01-12 15:52:00,29.0,21.7,29.97,SSE,156,3.0,7.0,74,0.00,,,0.00,Wunderground v.1.15,2013-01-12 21:52:00,
2013-01-12 15:57:00,29.0,21.7,29.98,SE,132,3.0,7.0,74,0.00,,,0.00,Wunderground v.1.15,2013-01-12 21:57:00,
2013-01-12 16:02:00,28.9,22.0,29.98,NNW,344,6.0,7.0,75,0.00,,,0.00,Wunderground v.1.15,2013-01-12 22:02:00,
2013-01-12 16:07:00,28.9,22.0,29.98,North,353,3.0,7.0,75,0.00,,,0.00,Wunderground v.1.15,2013-01-12 22:07:00,
2013-01-12 16:12:00,28.8,21.9,29.98,SSE,151,3.0,6.0,75,0.00,,,0.00,Wunderground v.1.15,2013-01-12 22:12:00,
2013-01-12 16:17:00,28.7,21.5,29.98,ENE,67,2.0,7.0,74,0.00,,,0.00,Wunderground v.1.15,2013-01-12 22:17:00,
2013-01-12 16:22:00,28.5,20.9,29.99,NNW,330,4.0,9.0,73,0.00,,,0.00,Wunderground v.1.15,2013-01-12 22:22:00,
2013-01-12 16:27:00,28.3,21.1,29.99,WSW,250,1.0,9.0,74,0.00,,,0.00,Wunderground v.1.15,2013-01-12 22:27:00,
2013-01-12 16:32:00,28.2,20.7,30.00,NNW,347,2.0,10.0,73,0.00,,,0.00,Wunderground v.1.15,2013-01-12 22:32:00,
2013-01-12 16:37:00,28.0,20.8,29.98,East,82,2.0,10.0,74,0.00,,,0.00,Wunderground v.1.15,2013-01-12 22:37:00,
2013-01-12 16:43:00,27.9,20.4,29.99,ESE,103,2.0,7.0,73,0.00,,,0.00,Wunderground v.1.15,2013-01-12 22:43:00,
2013-01-12 16:48:00,27.9,20.7,29.99,NNW,335,4.0,7.0,74,0.00,,,0.00,Wunderground v.1.15,2013-01-12 22:48:00,
2013-01-12 16:53:00,27.8,20.6,29.99,NW,309,1.0,5.0,74,0.00,,,0.00,Wunderground v.1.15,2013-01-12 22:53:00,
2013-01-12 16:58:00,27.7,20.5,29.98,NNW,340,3.0,5.0,74,0.00,,,0.00,Wunderground v.1.15,2013-01-12 22:58:00,
2013-01-12 17:03:00,27.6,20.4,29.98,ESE,112,1.0,4.0,74,0.00,,,0.00,Wunderground v.1.15,2013-01-12 23:03:00,
2013-01-12 17:08:00,27.4,19.9,29.98,East,87,2.0,6.0,73,0.00,,,0.00,Wunderground v.1.15,2013-01-12 23:08:00,
2013-01-12 17:13:00,27.3,20.1,29.97,NNW,341,0.0,6.0,74,0.00,,,0.00,Wunderground v.1.15,2013-01-12 23:13:00,
2013-01-12 17:18:00,27.2,20.0,29.98,SSE,161,1.0,6.0,74,0.00,,,0.00,Wunderground v.1.15,2013-01-12 23:18:00,
2013-01-12 17:23:00,27.2,20.0,29.97,ESE,117,1.0,6.0,74,0.00,,,0.00,Wunderground v.1.15,2013-01-12 23:23:00,
2013-01-12 17:28:00,27.1,19.9,29.97,SE,139,1.0,6.0,74,0.00,,,0.00,Wunderground v.1.15,2013-01-12 23:28:00,
2013-01-12 17:33:00,27.0,19.8,29.96,ESE,109,3.0,5.0,74,0.00,,,0.00,Wunderground v.1.15,2013-01-12 23:33:00,
2013-01-12 17:38:00,27.0,19.8,29.96,ESE,113,3.0,5.0,74,0.00,,,0.00,Wunderground v.1.15,2013-01-12 23:38:00,
2013-01-12 17:43:00,27.0,19.8,29.95,ESE,105,0.0,3.0,74,0.00,,,0.00,Wunderground v.1.15,2013-01-12 23:43:00,
2013-01-12 17:48:00,26.9,19.4,29.94,East,99,3.0,5.0,73,0.00,,,0.00,Wunderground v.1.15,2013-01-12 23:48:00,
2013-01-12 17:53:00,26.7,19.2,29.94,ESE,106,2.0,5.0,73,0.00,,,0.00,Wunderground v.1.15,2013-01-12 23:53:00,
2013-01-12 17:58:00,26.6,19.1,29.95,NW,322,2.0,5.0,73,0.00,,,0.00,Wunderground v.1.15,2013-01-12 23:58:00,
2013-01-12 18:03:00,26.6,19.4,29.94,SE,145,1.0,4.0,74,0.00,,,0.00,Wunderground v.1.15,2013-01-13 00:03:00,
2013-01-12 18:08:00,26.6,19.4,29.94,SE,126,0.0,4.0,74,0.00,,,0.00,Wunderground v.1.15,2013-01-13 00:08:00,
2013-01-12 18:13:00,26.6,19.4,29.95,ESE,104,2.0,5.0,74,0.00,,,0.00,Wunderground v.1.15,2013-01-13 00:13:00,
2013-01-12 18:19:00,26.6,19.7,29.94,SE,137,0.0,5.0,75,0.00,,,0.00,Wunderground v.1.15,2013-01-13 00:19:00,
2013-01-12 18:24:00,26.7,19.5,29.95,ESE,109,3.0,4.0,74,0.00,,,0.00,Wunderground v.1.15,2013-01-13 00:24:00,
2013-01-12 18:29:00,26.7,19.5,29.95,East,91,2.0,4.0,74,0.00,,,0.00,Wunderground v.1.15,2013-01-13 00:29:00,
2013-01-12 18:34:00,26.7,19.5,29.97,ESE,104,1.0,5.0,74,0.00,,,0.00,Wunderground v.1.15,2013-01-13 00:34:00,
2013-01-12 18:39:00,26.6,19.4,29.97,ESE,103,2.0,5.0,74,0.00,,,0.00,Wunderground v.1.15,2013-01-13 00:39:00,
2013-01-12 18:44:00,26.6,19.4,29.96,ESE,112,1.0,5.0,74,0.00,,,0.00,Wunderground v.1.15,2013-01-13 00:44:00,
2013-01-12 18:49:00,26.6,19.4,29.96,ESE,121,0.0,5.0,74,0.00,,,0.00,Wunderground v.1.15,2013-01-13 00:49:00,
2013-01-12 18:54:00,26.6,19.4,29.97,SSE,166,0.0,3.0,74,0.00,,,0.00,Wunderground v.1.15,2013-01-13 00:54:00,
2013-01-12 18:59:00,26.6,19.4,29.97,ESE,106,2.0,4.0,74,0.00,,,0.00,Wunderground v.1.15,2013-01-13 00:59:00,
2013-01-12 19:04:00,26.6,19.4,29.98,ESE,113,2.0,4.0,74,0.00,,,0.00,Wunderground v.1.15,2013-01-13 01:04:00,
2013-01-12 19:09:00,26.5,19.0,29.97,ESE,110,3.0,6.0,73,0.00,,,0.00,Wunderground v.1.15,2013-01-13 01:09:00,
2013-01-12 19:14:00,26.4,19.2,29.98,East,89,1.0,5.0,74,0.00,,,0.00,Wunderground v.1.15,2013-01-13 01:14:00,
2013-01-12 19:19:00,26.4,19.5,29.98,ESE,116,2.0,5.0,75,0.00,,,0.00,Wunderground v.1.15,2013-01-13 01:19:00,
2013-01-12 19:24:00,26.5,19.6,29.99,SE,124,1.0,4.0,75,0.00,,,0.00,Wunderground v.1.15,2013-01-13 01:24:00,
2013-01-12 19:29:00,26.5,19.6,29.99,SE,126,2.0,4.0,75,0.00,,,0.00,Wunderground v.1.15,2013-01-13 01:29:00,
2013-01-12 19:34:00,26.5,19.6,30.00,ESE,110,1.0,4.0,75,0.00,,,0.00,Wunderground v.1.15,2013-01-13 01:34:00,
2013-01-12 19:39:00,26.5,20.0,30.00,NNW,347,0.0,4.0,76,0.00,,,0.00,Wunderground v.1.15,2013-01-13 01:39:00,
2013-01-12 19:44:00,26.6,19.7,30.00,ENE,75,0.0,3.0,75,0.00,,,0.00,Wunderground v.1.15,2013-01-13 01:44:00,
2013-01-12 19:49:00,26.6,19.7,30.02,SE,130,1.0,3.0,75,0.00,,,0.00,Wunderground v.1.15,2013-01-13 01:49:00,
2013-01-12 19:54:00,26.5,19.6,30.01,ESE,102,3.0,6.0,75,0.00,,,0.00,Wunderground v.1.15,2013-01-13 01:54:00,
2013-01-12 19:59:00,26.3,19.5,30.00,ESE,117,2.0,6.0,75,0.00,,,0.00,Wunderground v.1.15,2013-01-13 01:59:00,
2013-01-12 20:04:00,26.3,19.5,30.00,ESE,113,1.0,3.0,75,0.00,,,0.00,Wunderground v.1.15,2013-01-13 02:04:00,
2013-01-12 20:09:00,26.2,19.4,30.01,SE,132,0.0,3.0,75,0.00,,,0.00,Wunderground v.1.15,2013-01-13 02:09:00,
2013-01-12 20:14:00,26.3,19.5,30.02,NNW,334,2.0,3.0,75,0.00,,,0.00,Wunderground v.1.15,2013-01-13 02:14:00,
2013-01-12 20:19:00,26.3,19.5,30.01,ESE,117,0.0,4.0,75,0.00,,,0.00,Wunderground v.1.15,2013-01-13 02:19:00,
2013-01-12 20:24:00,26.2,19.4,30.01,ESE,120,1.0,4.0,75,0.00,,,0.00,Wunderground v.1.15,2013-01-13 02:24:00,
2013-01-12 20:29:00,26.1,19.3,30.01,SSE,166,1.0,4.0,75,0.00,,,0.00,Wunderground v.1.15,2013-01-13 02:29:00,
2013-01-12 20:34:00,26.1,19.6,30.01,ESE,104,2.0,2.0,76,0.00,,,0.00,Wunderground v.1.15,2013-01-13 02:34:00,
2013-01-12 20:39:00,26.1,19.6,30.02,NNE,26,0.0,1.0,76,0.00,,,0.00,Wunderground v.1.15,2013-01-13 02:39:00,
2013-01-12 20:44:00,26.1,19.6,30.02,NNW,333,1.0,3.0,76,0.00,,,0.00,Wunderground v.1.15,2013-01-13 02:44:00,
2013-01-12 20:50:00,26.0,19.2,30.02,NNW,330,3.0,3.0,75,0.00,,,0.00,Wunderground v.1.15,2013-01-13 02:50:00,
2013-01-12 20:55:00,25.9,19.1,30.03,SE,136,1.0,6.0,75,0.00,,,0.00,Wunderground v.1.15,2013-01-13 02:55:00,
2013-01-12 21:00:00,25.8,19.3,30.03,ESE,109,0.0,2.0,76,0.00,,,0.00,Wunderground v.1.15,2013-01-13 03:00:00,
2013-01-12 21:05:00,25.8,19.3,30.03,ESE,109,1.0,2.0,76,0.00,,,0.00,Wunderground v.1.15,2013-01-13 03:05:00,
2013-01-12 21:10:00,25.7,19.2,30.03,SE,142,1.0,2.0,76,0.00,,,0.00,Wunderground v.1.15,2013-01-13 03:10:00,
2013-01-12 21:15:00,25.5,19.0,30.02,ESE,105,2.0,5.0,76,0.00,,,0.00,Wunderground v.1.15,2013-01-13 03:15:00,
2013-01-12 21:20:00,25.4,19.2,30.01,North,2,0.0,2.0,77,0.00,,,0.00,Wunderground v.1.15,2013-01-13 03:20:00,
2013-01-12 21:25:00,25.4,19.2,30.01,ESE,106,1.0,4.0,77,0.00,,,0.00,Wunderground v.1.15,2013-01-13 03:25:00,
2013-01-12 21:30:00,25.2,19.0,30.00,ESE,107,1.0,5.0,77,0.00,,,0.00,Wunderground v.1.15,2013-01-13 03:30:00,
2013-01-12 21:35:00,24.9,19.3,30.00,East,97,0.0,5.0,79,0.00,,,0.00,Wunderground v.1.15,2013-01-13 03:35:00,
2013-01-12 21:40:00,24.7,19.1,29.99,SE,126,0.0,2.0,79,0.00,,,0.00,Wunderground v.1.15,2013-01-13 03:40:00,
2013-01-12 21:45:00,24.6,19.0,29.99,ESE,119,3.0,3.0,79,0.00,,,0.00,Wunderground v.1.15,2013-01-13 03:45:00,
2013-01-12 21:50:00,24.5,18.0,29.99,SE,130,2.0,3.0,76,0.00,,,0.00,Wunderground v.1.15,2013-01-13 03:50:00,
2013-01-12 21:55:00,24.4,17.9,29.99,SE,135,2.0,5.0,76,0.00,,,0.00,Wunderground v.1.15,2013-01-13 03:55:00,
2013-01-12 22:00:00,24.3,17.8,29.99,SE,125,1.0,3.0,76,0.00,,,0.00,Wunderground v.1.15,2013-01-13 04:00:00,
2013-01-12 22:05:00,24.2,17.4,29.99,ESE,111,5.0,6.0,75,0.00,,,0.00,Wunderground v.1.15,2013-01-13 04:05:00,
2013-01-12 22:10:00,24.2,17.7,29.99,SE,139,0.0,3.0,76,0.00,,,0.00,Wunderground v.1.15,2013-01-13 04:10:00,
2013-01-12 22:15:00,24.2,18.0,29.99,SE,146,2.0,4.0,77,0.00,,,0.00,Wunderground v.1.15,2013-01-13 04:15:00,
2013-01-12 22:20:00,24.1,17.6,29.99,ESE,119,2.0,2.0,76,0.00,,,0.00,Wunderground v.1.15,2013-01-13 04:20:00,
2013-01-12 22:25:00,24.0,17.5,29.99,ESE,119,3.0,4.0,76,0.00,,,0.00,Wunderground v.1.15,2013-01-13 04:25:00,
2013-01-12 22:30:00,23.9,17.7,29.98,ESE,112,1.0,2.0,77,0.00,,,0.00,Wunderground v.1.15,2013-01-13 04:30:00,
2013-01-12 22:36:00,23.7,18.1,29.97,ESE,119,1.0,4.0,79,0.00,,,0.00,Wunderground v.1.15,2013-01-13 04:36:00,
2013-01-12 22:41:00,23.6,18.3,29.97,SSE,166,1.0,3.0,80,0.00,,,0.00,Wunderground v.1.15,2013-01-13 04:41:00,
2013-01-12 22:46:00,23.4,18.4,29.97,SSE,149,1.0,3.0,81,0.00,,,0.00,Wunderground v.1.15,2013-01-13 04:46:00,
2013-01-12 22:51:00,23.3,18.6,29.97,ESE,117,1.0,2.0,82,0.00,,,0.00,Wunderground v.1.15,2013-01-13 04:51:00,
2013-01-12 22:56:00,23.2,18.5,29.97,SE,145,1.0,4.0,82,0.00,,,0.00,Wunderground v.1.15,2013-01-13 04:56:00,
2013-01-12 23:00:00,23.1,18.7,29.97,SSE,156,1.0,2.0,83,0.00,,,0.00,Wunderground v.1.15,2013-01-13 05:00:00,
2013-01-12 23:03:00,23.0,18.3,29.96,ESE,120,1.0,3.0,82,0.00,,,0.00,Wunderground v.1.15,2013-01-13 05:03:00,
2013-01-12 23:08:00,22.9,18.5,29.96,ESE,105,0.0,3.0,83,0.00,,,0.00,Wunderground v.1.15,2013-01-13 05:08:00,
2013-01-12 23:13:00,22.8,18.1,29.96,SE,124,1.0,3.0,82,0.00,,,0.00,Wunderground v.1.15,2013-01-13 05:13:00,
2013-01-12 23:18:00,22.6,18.2,29.94,ESE,110,0.0,4.0,83,0.00,,,0.00,Wunderground v.1.15,2013-01-13 05:18:00,
2013-01-12 23:23:00,22.5,18.1,29.93,SE,129,0.0,2.0,83,0.00,,,0.00,Wunderground v.1.15,2013-01-13 05:23:00,
2013-01-12 23:28:00,22.3,18.2,29.94,SE,124,0.0,3.0,84,0.00,,,0.00,Wunderground v.1.15,2013-01-13 05:28:00,
2013-01-12 23:33:00,22.2,18.1,29.96,SE,136,1.0,3.0,84,0.00,,,0.00,Wunderground v.1.15,2013-01-13 05:33:00,
2013-01-12 23:38:00,22.2,18.1,29.98,SE,146,2.0,3.0,84,0.00,,,0.00,Wunderground v.1.15,2013-01-13 05:38:00,
2013-01-12 23:43:00,22.3,18.2,29.98,SE,139,2.0,4.0,84,0.00,,,0.00,Wunderground v.1.15,2013-01-13 05:43:00,
2013-01-12 23:48:00,22.4,18.3,29.99,South,176,0.0,4.0,84,0.00,,,0.00,Wunderground v.1.15,2013-01-13 05:48:00,
2013-01-12 23:53:00,22.4,18.0,29.99,SE,126,1.0,5.0,83,0.00,,,0.00,Wunderground v.1.15,2013-01-13 05:53:00,
2013-01-12 23:58:00,22.3,17.6,29.99,SSE,152,2.0,5.0,82,0.00,,,0.00,Wunderground v.1.15,2013-01-13 05:58:00,